Time;durP1;ratioP1;P1;durP2;ratioP2;P2;SDS_P1;SDS_P2;PMS_P1;PMS_P2;Temp;Humidity;BMP_temperature;BMP_pressure;BME280_temperature;BME280_humidity;BME280_pressure;Samples;Min_cycle;Max_cycle;Signal;HPM_P1;HPM_P2
2021/04/06 00:06:09;;;;;;;3.45;2.10;;;;;;;-1.35;73.85;98031.91;471432;1169;114255;-66
2021/04/06 00:16:13;;;;;;;6.50;2.50;;;;;;;-1.39;74.07;98059.52;471635;1168;114036;-67
2021/04/06 00:26:18;;;;;;;4.00;1.60;;;;;;;-1.37;74.04;98047.45;470983;1170;113880;-66
2021/04/06 00:36:27;;;;;;;5.05;2.40;;;;;;;-1.46;73.98;98055.53;471257;1168;113788;-67
2021/04/06 00:46:33;;;;;;;4.70;2.43;;;;;;;-1.57;73.54;98073.95;471395;1169;113896;-67
2021/04/06 00:56:38;;;;;;;2.33;1.70;;;;;;;-1.63;74.34;98098.20;471518;1168;114664;-68
2021/04/06 01:06:59;;;;;;;5.85;2.35;;;;;;;-1.43;74.38;98110.33;471656;1170;114155;-66
2021/04/06 01:17:05;;;;;;;4.70;2.40;;;;;;;-1.34;74.03;98127.15;471644;1169;113803;-67
2021/04/06 01:27:13;;;;;;;5.80;2.30;;;;;;;-1.35;73.99;98127.20;471430;1171;114798;-67
2021/04/06 01:37:20;;;;;;;9.60;2.37;;;;;;;-1.20;73.71;98142.07;471578;1170;113791;-69
2021/04/06 01:47:25;;;;;;;6.20;2.30;;;;;;;-1.08;73.52;98151.03;471573;1168;114343;-69
2021/04/06 01:57:35;;;;;;;4.23;1.67;;;;;;;-1.01;73.27;98165.36;471468;1167;114769;-66
2021/04/06 02:07:42;;;;;;;2.37;1.40;;;;;;;-0.96;73.32;98160.03;471430;1169;114156;-69
2021/04/06 02:17:48;;;;;;;;;;;;;;;-0.96;73.17;98170.34;471194;1169;114394;-67
2021/04/06 02:27:52;;;;;;;4.53;2.15;;;;;;;-0.98;73.26;98172.14;471924;1169;101760;-68
2021/04/06 02:37:56;;;;;;;4.40;2.13;;;;;;;-0.91;72.91;98170.16;471443;1168;113987;-67
2021/04/06 02:48:04;;;;;;;3.00;1.70;;;;;;;-0.99;73.01;98194.48;471841;1169;114480;-68
2021/04/06 02:58:14;;;;;;;4.67;2.93;;;;;;;-0.95;72.61;98204.66;472037;1170;114207;-67
2021/04/06 03:08:30;;;;;;;5.70;2.30;;;;;;;-0.94;73.15;98198.60;471398;1171;114010;-66
2021/04/06 03:18:36;;;;;;;5.65;2.35;;;;;;;-0.99;72.91;98202.20;471291;1168;114236;-67
2021/04/06 03:28:41;;;;;;;7.40;2.58;;;;;;;-1.02;72.89;98206.64;471267;1170;114990;-67
2021/04/06 03:38:45;;;;;;;5.10;2.90;;;;;;;-1.05;72.96;98204.19;471027;1169;115254;-68
2021/04/06 03:48:49;;;;;;;3.00;2.50;;;;;;;-1.05;73.14;98211.92;471450;1169;114985;-67
2021/04/06 03:58:56;;;;;;;7.65;3.15;;;;;;;-1.23;73.20;98209.13;471231;1168;114368;-67
2021/04/06 04:09:00;;;;;;;6.57;2.40;;;;;;;-1.28;73.46;98217.03;471278;1168;114129;-66
2021/04/06 04:19:05;;;;;;;7.05;2.60;;;;;;;-1.20;73.25;98211.62;471837;1170;114178;-68
2021/04/06 04:29:08;;;;;;;3.37;1.90;;;;;;;-1.10;73.23;98213.81;471275;1170;114224;-67
2021/04/06 04:39:13;;;;;;;4.20;2.17;;;;;;;-1.03;72.84;98226.42;471239;1168;114152;-67
2021/04/06 04:49:17;;;;;;;4.93;2.50;;;;;;;-1.01;72.49;98223.77;471144;1168;113829;-67
2021/04/06 04:59:20;;;;;;;4.23;2.67;;;;;;;-0.89;72.69;98225.88;471325;1171;114467;-67
2021/04/06 05:09:24;;;;;;;4.50;1.77;;;;;;;-0.61;72.37;98231.67;471545;1170;114216;-67
2021/04/06 05:19:29;;;;;;;11.43;3.37;;;;;;;-0.20;71.53;98236.89;471279;1169;114212;-68
2021/04/06 05:29:32;;;;;;;5.30;2.47;;;;;;;0.10;71.46;98233.07;471058;1168;114374;-68
2021/04/06 05:39:37;;;;;;;13.77;4.37;;;;;;;0.98;70.13;98236.90;455538;1168;10113224;-67
2021/04/06 05:49:42;;;;;;;7.93;3.70;;;;;;;1.11;68.62;98244.08;470923;1168;114274;-66
2021/04/06 05:59:47;;;;;;;7.83;3.67;;;;;;;1.47;67.82;98248.41;475302;1169;113640;-67
2021/04/06 06:09:51;;;;;;;7.03;4.00;;;;;;;2.79;66.18;98240.93;471321;1170;114153;-69
2021/04/06 06:19:56;;;;;;;11.73;6.23;;;;;;;1.96;66.05;98265.02;471234;1170;113946;-68
2021/04/06 06:30:19;;;;;;;8.60;4.85;;;;;;;1.79;65.37;98273.62;472191;1170;113945;-65
2021/04/06 06:40:26;;;;;;;12.40;5.97;;;;;;;1.40;65.64;98260.80;471543;1169;113925;-65
2021/04/06 06:50:31;;;;;;;13.10;5.97;;;;;;;0.89;65.73;98280.44;471645;1171;114800;-63
2021/04/06 07:00:35;;;;;;;8.43;5.10;;;;;;;0.26;67.03;98301.20;471155;1168;115292;-62
2021/04/06 07:10:40;;;;;;;6.85;4.95;;;;;;;0.23;66.93;98303.92;471109;1169;113910;-63
2021/04/06 07:20:46;;;;;;;15.87;6.77;;;;;;;0.31;66.95;98290.67;455359;1170;20002008;-61
2021/04/06 07:30:52;;;;;;;7.00;5.60;;;;;;;0.38;66.79;98301.58;471014;1170;114792;-62
2021/04/06 07:40:58;;;;;;;17.47;8.97;;;;;;;0.38;66.99;98299.84;463024;1170;10003530;-67
2021/04/06 07:51:16;;;;;;;11.45;8.20;;;;;;;0.55;67.28;98311.18;470851;1170;114361;-69
2021/04/06 08:01:29;;;;;;;14.53;7.70;;;;;;;0.82;66.22;98316.06;471132;1168;114167;-70
2021/04/06 08:12:03;;;;;;;11.77;9.40;;;;;;;0.83;65.76;98322.91;471869;1171;114164;-65
2021/04/06 08:22:19;;;;;;;13.67;7.03;;;;;;;1.24;64.82;98337.45;471787;1170;114144;-65
2021/04/06 08:32:23;;;;;;;7.77;5.20;;;;;;;1.08;64.10;98358.81;471211;1169;113838;-65
2021/04/06 08:42:27;;;;;;;9.40;4.53;;;;;;;1.57;64.08;98354.05;471002;1169;113815;-66
2021/04/06 08:52:31;;;;;;;11.60;5.15;;;;;;;2.87;62.85;98342.45;471131;1169;113890;-66
2021/04/06 09:02:35;;;;;;;7.10;4.03;;;;;;;3.07;60.75;98338.83;470763;1169;114168;-66
2021/04/06 09:12:41;;;;;;;7.13;5.13;;;;;;;3.18;60.60;98335.64;470798;1169;114017;-66
2021/04/06 09:22:47;;;;;;;7.73;4.20;;;;;;;3.35;59.70;98345.11;471128;1169;114428;-67
2021/04/06 09:32:51;;;;;;;5.30;3.27;;;;;;;4.05;58.52;98351.66;471411;1168;113616;-65
2021/04/06 09:42:55;;;;;;;8.83;3.97;;;;;;;4.49;56.44;98346.55;470904;1170;113957;-67
2021/04/06 09:53:00;;;;;;;8.13;2.87;;;;;;;4.89;56.49;98340.72;471056;1170;113631;-63
2021/04/06 10:03:09;;;;;;;7.80;3.47;;;;;;;4.89;54.89;98328.56;470996;1169;114027;-65
2021/04/06 10:13:13;;;;;;;3.00;2.48;;;;;;;5.16;54.29;98324.37;463417;1171;10001417;-66
2021/04/06 10:23:32;;;;;;;3.17;2.37;;;;;;;5.83;53.61;98315.81;470863;1170;114254;-73
2021/04/06 10:33:38;;;;;;;7.00;2.40;;;;;;;5.73;50.78;98319.94;471583;1168;114826;-66
2021/04/06 10:43:45;;;;;;;7.70;3.18;;;;;;;6.25;50.93;98323.53;470991;1168;114418;-72
2021/04/06 10:53:51;;;;;;;5.75;2.20;;;;;;;6.42;49.40;98317.20;472408;1170;114426;-69
2021/04/06 11:03:56;;;;;;;6.30;3.30;;;;;;;6.23;49.28;98312.35;471297;1168;114174;-67
2021/04/06 11:14:02;;;;;;;10.33;3.60;;;;;;;6.00;48.40;98322.52;471526;1169;113673;-65
2021/04/06 11:24:08;;;;;;;5.30;3.85;;;;;;;5.84;48.21;98308.81;471290;1169;114347;-68
2021/04/06 11:34:12;;;;;;;7.55;3.60;;;;;;;5.58;47.46;98293.11;471358;1168;114683;-68
2021/04/06 11:44:18;;;;;;;9.93;3.93;;;;;;;5.23;48.44;98290.98;472548;1168;113946;-65
2021/04/06 11:54:23;;;;;;;6.27;2.47;;;;;;;4.66;47.20;98290.94;471428;1168;114561;-63
2021/04/06 12:04:29;;;;;;;7.00;2.50;;;;;;;4.49;47.87;98297.16;455550;1168;20001831;-61
2021/04/06 12:14:32;;;;;;;3.57;2.30;;;;;;;5.05;47.51;98292.04;473192;1168;114096;-63
2021/04/06 12:24:37;;;;;;;4.47;2.60;;;;;;;5.63;47.93;98272.80;471014;1168;113800;-68
2021/04/06 12:34:41;;;;;;;6.40;2.30;;;;;;;5.98;46.39;98264.44;471557;1170;114108;-69
2021/04/06 12:44:45;;;;;;;6.87;3.13;;;;;;;5.87;45.08;98265.16;470795;1168;113962;-64
2021/04/06 12:54:50;;;;;;;3.60;1.55;;;;;;;5.81;46.35;98255.14;478716;1170;114983;-60
2021/04/06 13:04:54;;;;;;;3.30;1.97;;;;;;;5.64;45.73;98261.45;470957;1170;114918;-64
2021/04/06 13:14:58;;;;;;;9.13;3.03;;;;;;;5.51;45.41;98253.61;463279;1170;10001110;-66
2021/04/06 13:25:05;;;;;;;4.25;2.25;;;;;;;5.80;45.43;98248.26;471127;1169;114251;-69
2021/04/06 13:35:12;;;;;;;4.23;2.40;;;;;;;5.87;45.54;98248.69;471452;1169;115328;-61
2021/04/06 13:45:19;;;;;;;5.83;3.47;;;;;;;5.32;45.30;98257.39;471257;1169;114000;-68
2021/04/06 13:55:36;;;;;;;6.57;2.93;;;;;;;4.89;45.24;98257.48;471270;1170;113857;-71
2021/04/06 14:05:41;;;;;;;8.65;3.40;;;;;;;4.82;44.79;98256.22;471932;1168;113990;-68
2021/04/06 14:15:46;;;;;;;5.23;2.37;;;;;;;4.99;45.49;98260.37;471523;1170;114269;-63
2021/04/06 14:25:50;;;;;;;4.13;2.10;;;;;;;4.99;44.67;98253.38;470976;1169;113661;-63
2021/04/06 14:35:55;;;;;;;2.00;1.60;;;;;;;5.21;43.35;98249.43;471203;1169;114418;-66
2021/04/06 14:46:01;;;;;;;4.07;2.20;;;;;;;5.44;43.54;98244.52;471028;1169;113683;-67
2021/04/06 14:56:10;;;;;;;4.00;1.90;;;;;;;5.58;43.10;98236.64;471238;1169;114077;-66
2021/04/06 15:06:14;;;;;;;4.67;2.37;;;;;;;5.33;43.81;98240.84;471306;1168;114059;-69
2021/04/06 15:16:18;;;;;;;3.77;2.70;;;;;;;5.38;43.27;98232.73;471315;1169;114415;-69
2021/04/06 15:26:27;;;;;;;5.17;2.53;;;;;;;5.20;43.34;98242.56;471502;1168;114391;-71
2021/04/06 15:36:30;;;;;;;4.10;1.90;;;;;;;4.87;43.68;98230.73;471175;1169;113922;-67
2021/04/06 15:46:34;;;;;;;6.60;2.40;;;;;;;4.63;43.51;98231.33;471160;1171;114691;-67
2021/04/06 15:56:38;;;;;;;4.57;2.17;;;;;;;4.16;44.08;98241.09;470933;1171;114442;-69
2021/04/06 16:06:42;;;;;;;4.75;2.90;;;;;;;4.05;44.37;98239.11;471071;1170;113710;-70
2021/04/06 16:16:45;;;;;;;4.23;2.77;;;;;;;3.88;44.13;98229.71;471146;1167;115346;-70
2021/04/06 16:26:49;;;;;;;5.37;1.93;;;;;;;3.54;44.21;98227.31;470723;1170;114497;-70
2021/04/06 16:36:53;;;;;;;8.10;1.90;;;;;;;3.07;45.30;98227.30;470981;1170;114062;-70
2021/04/06 16:46:57;;;;;;;8.03;2.67;;;;;;;2.72;45.88;98218.84;471310;1169;115529;-69
2021/04/06 16:57:01;;;;;;;7.07;3.93;;;;;;;2.42;46.14;98220.39;470983;1170;114673;-68
2021/04/06 17:07:05;;;;;;;6.35;2.95;;;;;;;2.12;46.64;98221.06;463572;1170;10001580;-69
2021/04/06 17:17:09;;;;;;;8.80;2.87;;;;;;;1.76;47.66;98230.63;471160;1170;114012;-69
2021/04/06 17:27:13;;;;;;;7.93;3.57;;;;;;;1.34;48.37;98247.33;471827;1167;113661;-69
2021/04/06 17:37:17;;;;;;;7.85;4.50;;;;;;;0.88;50.04;98251.16;471435;1169;114774;-70
2021/04/06 17:47:21;;;;;;;8.07;4.07;;;;;;;0.45;50.91;98256.52;471876;1169;113711;-70
2021/04/06 17:57:25;;;;;;;11.50;4.43;;;;;;;0.00;52.24;98263.61;472878;1168;113588;-68
2021/04/06 18:07:29;;;;;;;12.20;6.40;;;;;;;-0.36;53.50;98284.84;464055;1168;10001758;-69
2021/04/06 18:17:33;;;;;;;11.05;6.80;;;;;;;-0.67;53.84;98286.89;471705;1168;114798;-69
2021/04/06 18:27:39;;;;;;;12.20;6.75;;;;;;;-0.94;55.69;98294.80;472010;1168;114679;-68
2021/04/06 18:37:45;;;;;;;10.83;7.77;;;;;;;-1.19;55.58;98298.30;471649;1168;114725;-68
2021/04/06 18:47:54;;;;;;;24.00;11.17;;;;;;;-1.41;56.72;98308.52;471052;1168;114594;-69
2021/04/06 18:58:00;;;;;;;24.03;13.87;;;;;;;-1.68;57.42;98298.31;471122;1169;116361;-68
2021/04/06 19:08:07;;;;;;;33.17;15.43;;;;;;;-1.92;58.54;98300.84;471315;1168;114499;-69
2021/04/06 19:18:13;;;;;;;37.47;20.10;;;;;;;-2.15;58.74;98314.45;471273;1169;114320;-69
2021/04/06 19:28:17;;;;;;;76.17;29.77;;;;;;;-2.37;59.94;98304.85;471938;1168;115133;-69
2021/04/06 19:38:22;;;;;;;70.27;37.63;;;;;;;-2.59;61.02;98299.56;471323;1168;117383;-68
2021/04/06 19:48:26;;;;;;;81.23;41.07;;;;;;;-2.75;60.83;98299.19;471280;1171;114361;-69
2021/04/06 19:58:31;;;;;;;64.35;33.35;;;;;;;-2.88;61.85;98296.17;471562;1170;114843;-69
2021/04/06 20:08:35;;;;;;;65.10;33.43;;;;;;;-2.74;62.49;98306.02;471552;1168;114168;-69
2021/04/06 20:18:40;;;;;;;42.27;25.27;;;;;;;-2.74;62.62;98306.02;471781;1167;114441;-68
2021/04/06 20:29:04;;;;;;;29.53;16.53;;;;;;;-2.72;62.81;98309.37;472004;1170;114482;-69
2021/04/06 20:39:10;;;;;;;27.03;13.97;;;;;;;-2.52;63.25;98305.34;471859;1170;114908;-69
2021/04/06 20:49:14;;;;;;;20.05;11.15;;;;;;;-2.48;64.41;98307.78;471600;1170;115194;-69
2021/04/06 20:59:18;;;;;;;16.60;9.20;;;;;;;-2.42;64.86;98299.03;471650;1168;114677;-69
2021/04/06 21:09:22;;;;;;;18.05;9.10;;;;;;;-2.39;65.46;98306.64;471722;1170;114326;-69
2021/04/06 21:19:26;;;;;;;15.77;9.63;;;;;;;-2.42;66.10;98301.60;463055;1169;10001160;-63
2021/04/06 21:29:30;;;;;;;12.40;7.63;;;;;;;-2.46;66.30;98316.28;471247;1168;114333;-66
2021/04/06 21:39:35;;;;;;;18.30;8.93;;;;;;;-2.67;66.83;98307.52;472003;1169;114436;-66
2021/04/06 21:49:39;;;;;;;16.10;9.00;;;;;;;-2.80;67.11;98304.47;471346;1169;114889;-67
2021/04/06 21:59:43;;;;;;;14.05;9.10;;;;;;;-2.91;67.73;98299.66;471555;1168;115054;-66
2021/04/06 22:09:46;;;;;;;15.50;9.87;;;;;;;-3.07;67.99;98299.27;471132;1170;114339;-67
2021/04/06 22:19:50;;;;;;;13.65;9.30;;;;;;;-3.24;68.43;98289.49;471592;1170;114313;-66
2021/04/06 22:29:54;;;;;;;15.03;10.03;;;;;;;-3.29;69.35;98291.33;471694;1169;114608;-63
2021/04/06 22:39:58;;;;;;;18.57;11.20;;;;;;;-3.30;69.48;98287.94;470832;1169;114499;-66
2021/04/06 22:50:03;;;;;;;20.07;11.47;;;;;;;-3.35;70.11;98276.94;470942;1169;114586;-68
2021/04/06 23:00:12;;;;;;;17.00;11.55;;;;;;;-3.43;70.20;98277.17;471195;1168;114694;-67
2021/04/06 23:10:20;;;;;;;18.07;11.40;;;;;;;-3.47;70.87;98290.13;471305;1168;114164;-66
2021/04/06 23:20:24;;;;;;;19.57;11.40;;;;;;;-3.61;70.84;98287.96;471232;1169;114155;-66
2021/04/06 23:30:36;;;;;;;18.37;11.77;;;;;;;-3.76;71.26;98286.64;471905;1168;114740;-66
2021/04/06 23:40:39;;;;;;;22.20;11.73;;;;;;;-3.91;71.64;98286.17;471699;1169;114404;-65
2021/04/06 23:50:43;;;;;;;16.10;11.10;;;;;;;-4.08;71.99;98268.66;471215;1169;115030;-66
